createdAt,value
2023-04-03T00:02:48.554Z,99991.09
2023-04-03T00:07:51.814Z,99996.38
2023-04-03T00:12:55.027Z,99996.81
2023-04-03T00:17:58.250Z,99990.69
2023-04-03T00:23:02.410Z,99994.31
2023-04-03T00:28:06.287Z,99999.59
2023-04-03T00:33:12.939Z,99997.06
2023-04-03T00:38:16.514Z,100007.63
2023-04-03T00:43:27.429Z,100012.91
2023-04-03T00:48:46.014Z,100009.59
2023-04-03T00:54:00.839Z,100015.28
2023-04-03T00:59:16.317Z,100024.31
2023-04-03T01:04:32.191Z,100015.44
2023-04-03T01:09:36.237Z,100020.41
2023-04-03T01:14:39.337Z,100024.75
2023-04-03T01:19:48.444Z,100022.09
2023-04-03T01:24:54.300Z,100023.06
2023-04-03T01:29:57.970Z,100019.75
2023-04-03T01:35:00.866Z,100028.78
2023-04-03T01:40:05.381Z,100021.28
2023-04-03T01:45:09.100Z,100027.38
2023-04-03T01:50:12.040Z,100033.91
2023-04-03T01:55:14.837Z,100029.06
2023-04-03T02:00:18.091Z,100037.22
2023-04-03T02:05:21.137Z,100036.94
2023-04-03T02:10:24.200Z,100045.81
2023-04-03T02:15:27.210Z,100045.69
2023-04-03T02:20:30.629Z,100051.63
2023-04-03T02:25:36.085Z,100056.19
2023-04-03T02:30:40.405Z,100058.28
2023-04-03T02:35:43.541Z,100051.63
2023-04-03T02:40:46.491Z,100058.81
2023-04-03T02:45:49.763Z,100055.91
2023-04-03T02:50:53.242Z,100050.50
2023-04-03T02:55:56.382Z,100050.50
2023-04-03T03:00:59.537Z,100052.28
2023-04-03T03:06:03.993Z,100057.81
2023-04-03T03:11:07.366Z,100056.69
2023-04-03T03:16:10.777Z,100052.94
2023-04-03T03:21:13.976Z,100060.53
2023-04-03T03:26:17.498Z,100059.81
2023-04-03T03:31:20.679Z,100067.94
2023-04-03T03:36:23.769Z,100067.56
2023-04-03T03:41:27.191Z,100063.94
2023-04-03T03:46:30.320Z,100063.28
2023-04-03T03:51:33.335Z,100062.41
2023-04-03T03:56:36.668Z,100060.69
2023-04-03T04:01:40.727Z,100065.84
2023-04-03T04:06:43.779Z,100067.72
2023-04-03T04:11:46.685Z,100068.63
2023-04-03T04:16:50.229Z,100063.41
2023-04-03T04:21:53.069Z,100076.56
2023-04-03T04:26:56.536Z,100076.38
2023-04-03T04:31:59.672Z,100090.00
2023-04-03T04:37:02.784Z,100097.13
2023-04-03T04:42:06.111Z,100105.97
2023-04-03T04:47:09.112Z,100100.50
2023-04-03T04:52:12.578Z,100095.81
2023-04-03T04:57:16.675Z,100094.50
2023-04-03T05:02:19.840Z,100092.31
2023-04-03T05:07:23.038Z,100095.53
2023-04-03T05:12:26.091Z,100098.06
2023-04-03T05:17:29.211Z,100099.56
2023-04-03T05:22:32.442Z,100105.44
2023-04-03T05:27:36.113Z,100103.50
2023-04-03T05:32:39.133Z,100114.94
2023-04-03T05:37:42.322Z,100118.22
2023-04-03T05:42:45.617Z,100116.84
2023-04-03T05:47:48.672Z,100118.09
2023-04-03T05:52:53.938Z,100108.06
2023-04-03T05:57:57.614Z,100116.72
2023-04-03T06:03:01.096Z,100121.38
2023-04-03T06:08:04.395Z,100115.25
2023-04-03T06:13:08.169Z,100131.00
2023-04-03T06:18:11.735Z,100129.72
2023-04-03T06:23:15.697Z,100129.06
2023-04-03T06:28:20.294Z,100128.28
2023-04-03T06:33:23.250Z,100133.13
2023-04-03T06:38:26.101Z,100129.19
2023-04-03T06:43:29.058Z,100144.88
2023-04-03T06:48:32.473Z,100143.63
2023-04-03T06:53:35.606Z,100140.38
2023-04-03T06:58:38.612Z,100144.34
2023-04-03T07:03:42.216Z,100151.53
2023-04-03T07:08:46.759Z,100149.91
2023-04-03T07:13:50.148Z,100155.34
2023-04-03T07:18:53.411Z,100155.34
2023-04-03T07:23:56.591Z,100162.53
2023-04-03T07:29:00.701Z,100166.16
2023-04-03T07:34:04.370Z,100167.59
2023-04-03T07:39:08.205Z,100159.13
2023-04-03T07:44:11.973Z,100159.09
2023-04-03T07:49:15.461Z,100161.03
2023-04-03T07:54:18.436Z,100168.81
2023-04-03T07:59:21.508Z,100167.25
2023-04-03T08:04:25.044Z,100167.63
2023-04-03T08:09:28.181Z,100157.25
2023-04-03T08:14:35.657Z,100161.75
2023-04-03T08:19:42.279Z,100172.88
2023-04-03T08:24:56.201Z,100173.94
2023-04-03T08:29:59.422Z,100171.00
2023-04-03T08:35:02.791Z,100167.84
2023-04-03T08:40:16.070Z,100163.56
2023-04-03T08:45:46.499Z,100151.06
2023-04-03T08:50:58.759Z,100154.13
2023-04-03T08:56:08.760Z,100148.69
2023-04-03T09:01:41.992Z,100141.88
2023-04-03T09:07:01.088Z,100144.91
2023-04-03T09:12:18.345Z,100144.50
2023-04-03T09:17:39.350Z,100147.28
2023-04-03T09:22:49.607Z,100162.72
2023-04-03T09:27:55.008Z,100155.81
2023-04-03T09:32:59.166Z,100160.34
2023-04-03T09:38:21.581Z,100161.31
2023-04-03T09:43:32.919Z,100155.09
2023-04-03T09:48:36.100Z,100162.38
2023-04-03T09:53:43.733Z,100164.56
2023-04-03T09:59:14.575Z,100162.66
2023-04-03T10:04:20.094Z,100162.44
2023-04-03T10:09:33.998Z,100164.09
2023-04-03T10:14:58.945Z,100163.13
2023-04-03T10:20:44.523Z,100158.59
2023-04-03T10:26:26.654Z,100152.91
2023-04-03T10:31:43.711Z,100152.63
2023-04-03T10:37:17.492Z,100160.97
2023-04-03T10:42:27.596Z,100156.47
2023-04-03T10:47:56.157Z,100158.19
2023-04-03T10:53:18.840Z,100164.34
2023-04-03T10:58:46.295Z,100164.34
2023-04-03T11:04:04.956Z,100162.38
2023-04-03T11:09:34.600Z,100164.03
2023-04-03T11:14:39.301Z,100163.19
2023-04-03T11:20:19.526Z,100155.22
2023-04-03T11:25:26.336Z,100161.69
2023-04-03T11:31:31.148Z,100157.38
2023-04-03T11:36:48.954Z,100147.59
2023-04-03T11:42:00.239Z,100144.31
2023-04-03T11:47:13.339Z,100138.47
2023-04-03T11:53:16.719Z,100133.50
2023-04-03T11:58:29.469Z,100125.53
2023-04-03T12:04:07.648Z,100132.03
2023-04-03T12:09:31.916Z,100130.19
2023-04-03T12:14:42.834Z,100133.00
2023-04-03T12:19:48.175Z,100118.38
2023-04-03T12:24:53.655Z,100119.72
2023-04-03T12:30:06.362Z,100122.69
2023-04-03T12:35:24.284Z,100123.03
2023-04-03T12:40:48.413Z,100117.34
2023-04-03T12:46:01.727Z,100115.34
2023-04-03T12:51:06.394Z,100110.56
2023-04-03T12:56:33.830Z,100104.59
2023-04-03T13:01:36.916Z,100108.41
2023-04-03T13:06:43.748Z,100097.56
2023-04-03T13:11:47.264Z,100095.19
2023-04-03T13:17:22.358Z,100091.31
2023-04-03T13:22:40.467Z,100085.47
2023-04-03T13:27:45.206Z,100078.63
2023-04-03T13:32:48.825Z,100080.25
2023-04-03T13:38:19.854Z,100075.75
2023-04-03T13:43:27.201Z,100070.81
2023-04-03T13:48:48.005Z,100068.72
2023-04-03T13:54:35.633Z,100064.34
2023-04-03T13:59:38.802Z,100062.84
2023-04-03T14:04:44.985Z,100060.41
2023-04-03T14:09:49.550Z,100050.28
2023-04-03T14:14:54.326Z,100053.28
2023-04-03T14:19:58.829Z,100039.34
2023-04-03T14:25:02.536Z,100047.13
2023-04-03T14:30:15.484Z,100044.31
2023-04-03T14:35:20.391Z,100044.34
2023-04-03T14:40:28.463Z,100041.69
2023-04-03T14:45:31.458Z,100041.53
2023-04-03T14:50:34.376Z,100049.66
2023-04-03T14:55:39.886Z,100056.31
2023-04-03T15:00:43.083Z,100057.31
2023-04-03T15:05:48.889Z,100053.31
2023-04-03T15:10:53.997Z,100053.84
2023-04-03T15:15:57.242Z,100059.66
2023-04-03T15:21:00.248Z,100058.34
2023-04-03T15:26:03.806Z,100059.00
2023-04-03T15:31:08.064Z,100053.34
2023-04-03T15:36:22.995Z,100050.03
2023-04-03T15:41:34.830Z,100053.00
2023-04-03T15:46:38.404Z,100060.63
2023-04-03T15:51:42.345Z,100076.53
2023-04-03T15:56:46.335Z,100085.03
2023-04-03T16:01:51.249Z,100095.66
2023-04-03T16:06:54.501Z,100102.75
2023-04-03T16:11:57.482Z,100106.13
2023-04-03T16:17:01.358Z,100099.34
2023-04-03T16:22:04.392Z,100109.78
2023-04-03T16:27:07.737Z,100104.66
2023-04-03T16:32:13.908Z,100124.50
2023-04-03T16:37:17.700Z,100128.81
2023-04-03T16:42:21.364Z,100138.88
2023-04-03T16:47:24.260Z,100144.75
2023-04-03T16:52:27.219Z,100155.63
2023-04-03T16:57:30.173Z,100156.34
2023-04-03T17:02:33.299Z,100164.47
2023-04-03T17:07:36.344Z,100175.63
2023-04-03T17:12:39.281Z,100183.41
2023-04-03T17:17:42.590Z,100199.00
2023-04-03T17:22:45.696Z,100214.16
2023-04-03T17:27:48.920Z,100220.28
2023-04-03T17:32:52.014Z,100246.56
2023-04-03T17:37:55.121Z,100251.59
2023-04-03T17:42:58.582Z,100270.88
2023-04-03T17:48:01.595Z,100281.88
2023-04-03T17:53:04.489Z,100300.88
2023-04-03T17:58:07.560Z,100303.91
2023-04-03T18:03:10.768Z,100316.41
2023-04-03T18:08:13.723Z,100316.69
2023-04-03T18:13:17.280Z,100347.22
2023-04-03T18:18:20.455Z,100354.69
2023-04-03T18:23:25.420Z,100370.31
2023-04-03T18:28:31.574Z,100385.56
2023-04-03T18:33:34.658Z,100396.94
2023-04-03T18:38:37.704Z,100385.50
2023-04-03T18:43:41.205Z,100412.31
2023-04-03T18:48:46.001Z,100415.16
2023-04-03T18:53:48.926Z,100428.38
2023-04-03T18:58:52.445Z,100424.84
2023-04-03T19:03:55.528Z,100433.72
2023-04-03T19:08:59.695Z,100432.81
2023-04-03T19:14:15.318Z,100431.75
2023-04-03T19:19:19.916Z,100434.53
2023-04-03T19:24:22.952Z,100439.63
2023-04-03T19:29:26.043Z,100434.66
2023-04-03T19:34:29.104Z,100426.53
2023-04-03T19:39:35.286Z,100433.50
2023-04-03T19:44:39.324Z,100428.34
2023-04-03T19:49:42.969Z,100436.84
2023-04-03T19:54:45.942Z,100431.22
2023-04-03T19:59:48.948Z,100438.75
2023-04-03T20:04:51.983Z,100429.56
2023-04-03T20:09:55.637Z,100422.63
2023-04-03T20:15:00.043Z,100413.28
2023-04-03T20:20:04.573Z,100416.19
2023-04-03T20:25:15.359Z,100422.41
2023-04-03T20:30:21.970Z,100416.28
2023-04-03T20:35:25.219Z,100418.53
2023-04-03T20:40:28.232Z,100405.16
2023-04-03T20:45:32.201Z,100415.31
2023-04-03T20:50:36.142Z,100412.66
2023-04-03T20:55:39.244Z,100403.59
2023-04-03T21:00:42.440Z,100400.97
2023-04-03T21:05:48.300Z,100409.69
2023-04-03T21:11:47.667Z,100406.34
2023-04-03T21:16:50.438Z,100416.09
2023-04-03T21:21:55.083Z,100406.06
2023-04-03T21:26:58.092Z,100405.47
2023-04-03T21:32:01.992Z,100402.56
2023-04-03T21:37:08.742Z,100389.78
2023-04-03T21:42:12.880Z,100395.16
2023-04-03T21:47:16.878Z,100395.63
2023-04-03T21:52:19.775Z,100401.81
2023-04-03T21:57:23.808Z,100392.50
2023-04-03T22:02:27.167Z,100390.31
2023-04-03T22:07:30.096Z,100376.94
2023-04-03T22:12:33.025Z,100370.38
2023-04-03T22:17:35.977Z,100379.84
2023-04-03T22:22:38.912Z,100383.38
2023-04-03T22:27:41.960Z,100375.69
2023-04-03T22:32:44.872Z,100356.56
2023-04-03T22:37:48.326Z,100365.50
2023-04-03T22:42:51.254Z,100355.47
2023-04-03T22:47:58.662Z,100360.63
2023-04-03T22:53:01.407Z,100365.38
2023-04-03T22:58:04.971Z,100374.34
2023-04-03T23:03:09.475Z,100379.06
2023-04-03T23:08:12.706Z,100378.66
2023-04-03T23:13:15.597Z,100365.75
2023-04-03T23:18:18.483Z,100367.81
2023-04-03T23:23:25.258Z,100378.25
2023-04-03T23:28:29.428Z,100387.53
2023-04-03T23:33:33.334Z,100379.34
2023-04-03T23:38:36.944Z,100377.88
2023-04-03T23:43:41.520Z,100377.13
2023-04-03T23:48:45.282Z,100369.69
2023-04-03T23:53:49.223Z,100381.28
2023-04-03T23:58:52.203Z,100372.16
